﻿<?xml version="1.0" encoding="utf-8"?><gpx creator="Garmin Desktop App" version="1.1" xsi:schemaLocation="http://www.topografix.com/GPX/1/1 http://www.topografix.com/GPX/1/1/gpx.xsd http://www.garmin.com/xmlschemas/WaypointExtension/v1 http://www8.garmin.com/xmlschemas/WaypointExtensionv1.xsd http://www.garmin.com/xmlschemas/TrackPointExtension/v1 http://www.garmin.com/xmlschemas/TrackPointExtensionv1.xsd http://www.garmin.com/xmlschemas/GpxExtensions/v3 http://www8.garmin.com/xmlschemas/GpxExtensionsv3.xsd http://www.garmin.com/xmlschemas/ActivityExtension/v1 http://www8.garmin.com/xmlschemas/ActivityExtensionv1.xsd http://www.garmin.com/xmlschemas/AdventuresExtensions/v1 http://www8.garmin.com/xmlschemas/AdventuresExtensionv1.xsd http://www.garmin.com/xmlschemas/PressureExtension/v1 http://www.garmin.com/xmlschemas/PressureExtensionv1.xsd http://www.garmin.com/xmlschemas/TripExtensions/v1 http://www.garmin.com/xmlschemas/TripExtensionsv1.xsd http://www.garmin.com/xmlschemas/TripMetaDataExtensions/v1 http://www.garmin.com/xmlschemas/TripMetaDataExtensionsv1.xsd http://www.garmin.com/xmlschemas/ViaPointTransportationModeExtensions/v1 http://www.garmin.com/xmlschemas/ViaPointTransportationModeExtensionsv1.xsd http://www.garmin.com/xmlschemas/CreationTimeExtension/v1 http://www.garmin.com/xmlschemas/CreationTimeExtensionsv1.xsd http://www.garmin.com/xmlschemas/AccelerationExtension/v1 http://www.garmin.com/xmlschemas/AccelerationExtensionv1.xsd http://www.garmin.com/xmlschemas/PowerExtension/v1 http://www.garmin.com/xmlschemas/PowerExtensionv1.xsd http://www.garmin.com/xmlschemas/VideoExtension/v1 http://www.garmin.com/xmlschemas/VideoExtensionv1.xsd" xmlns="http://www.topografix.com/GPX/1/1" xmlns:xsi="http://www.w3.org/2001/XMLSchema-instance" xmlns:wptx1="http://www.garmin.com/xmlschemas/WaypointExtension/v1" xmlns:gpxtrx="http://www.garmin.com/xmlschemas/GpxExtensions/v3" xmlns:gpxtpx="http://www.garmin.com/xmlschemas/TrackPointExtension/v1" xmlns:gpxx="http://www.garmin.com/xmlschemas/GpxExtensions/v3" xmlns:trp="http://www.garmin.com/xmlschemas/TripExtensions/v1" xmlns:adv="http://www.garmin.com/xmlschemas/AdventuresExtensions/v1" xmlns:prs="http://www.garmin.com/xmlschemas/PressureExtension/v1" xmlns:tmd="http://www.garmin.com/xmlschemas/TripMetaDataExtensions/v1" xmlns:vptm="http://www.garmin.com/xmlschemas/ViaPointTransportationModeExtensions/v1" xmlns:ctx="http://www.garmin.com/xmlschemas/CreationTimeExtension/v1" xmlns:gpxacc="http://www.garmin.com/xmlschemas/AccelerationExtension/v1" xmlns:gpxpx="http://www.garmin.com/xmlschemas/PowerExtension/v1" xmlns:vidx1="http://www.garmin.com/xmlschemas/VideoExtension/v1">

  <metadata>
    <link href="http://www.garmin.com">
      <text>Garmin International</text>
    </link>
    <time>2026-03-24T10:13:55Z</time>
    <bounds maxlat="51.287115029990673" maxlon="5.923720384016633" minlat="51.262894347310066" minlon="5.883531253784895" />
  </metadata>

  <trk>
    <name>20260322 Roggel</name>
    <extensions>
      <gpxx:TrackExtension>
        <gpxx:DisplayColor>Red</gpxx:DisplayColor>
      </gpxx:TrackExtension>
    </extensions>
    <trkseg>
      <trkpt lat="51.263280836865306" lon="5.919477548450232">
        <ele>30.40625</ele>
      </trkpt>
      <trkpt lat="51.263363230973482" lon="5.921050747856498">
        <ele>20.5</ele>
        <time>2026-03-22T08:02:11Z</time>
      </trkpt>
      <trkpt lat="51.263382090255618" lon="5.921340258792043">
        <ele>20.280000000000001</ele>
        <time>2026-03-22T08:02:24Z</time>
      </trkpt>
      <trkpt lat="51.263391310349107" lon="5.92161032371223">
        <ele>20.129999999999999</ele>
        <time>2026-03-22T08:02:38Z</time>
      </trkpt>
      <trkpt lat="51.26338753849268" lon="5.921825068071485">
        <ele>19.859999999999999</ele>
        <time>2026-03-22T08:02:52Z</time>
      </trkpt>
      <trkpt lat="51.26338753849268" lon="5.921904444694519">
        <ele>19.850000000000001</ele>
        <time>2026-03-22T08:02:55Z</time>
      </trkpt>
      <trkpt lat="51.26340907998383" lon="5.92234960757196">
        <ele>19.640000000000001</ele>
        <time>2026-03-22T08:03:16Z</time>
      </trkpt>
      <trkpt lat="51.263347053900361" lon="5.922499476000667">
        <ele>29.50390625</ele>
      </trkpt>
      <trkpt lat="51.263225851580501" lon="5.922578768804669">
        <ele>19.559999999999999</ele>
        <time>2026-03-22T08:03:35Z</time>
      </trkpt>
      <trkpt lat="51.263314783573151" lon="5.923217888921499">
        <ele>19.32</ele>
        <time>2026-03-22T08:03:56Z</time>
      </trkpt>
      <trkpt lat="51.263357866555452" lon="5.923455934971571">
        <ele>18.940000000000001</ele>
        <time>2026-03-22T08:04:08Z</time>
      </trkpt>
      <trkpt lat="51.26338753849268" lon="5.923720384016633">
        <ele>18.890000000000001</ele>
        <time>2026-03-22T08:04:21Z</time>
      </trkpt>
      <trkpt lat="51.263464232906699" lon="5.923696160316467">
        <ele>18.859999999999999</ele>
        <time>2026-03-22T08:04:24Z</time>
      </trkpt>
      <trkpt lat="51.263485355302691" lon="5.923692807555199">
        <ele>18.77</ele>
        <time>2026-03-22T08:04:27Z</time>
      </trkpt>
      <trkpt lat="51.26368124037981" lon="5.923583758994937">
        <ele>18.52</ele>
        <time>2026-03-22T08:04:41Z</time>
      </trkpt>
      <trkpt lat="51.263864887878299" lon="5.923438668251038">
        <ele>18.5</ele>
        <time>2026-03-22T08:04:56Z</time>
      </trkpt>
      <trkpt lat="51.26392406411469" lon="5.92341486364603">
        <ele>18.52</ele>
        <time>2026-03-22T08:04:59Z</time>
      </trkpt>
      <trkpt lat="51.26421139575541" lon="5.923191150650382">
        <ele>18.649999999999999</ele>
        <time>2026-03-22T08:05:21Z</time>
      </trkpt>
      <trkpt lat="51.264366041868925" lon="5.923000546172261">
        <ele>18.609999999999999</ele>
        <time>2026-03-22T08:05:38Z</time>
      </trkpt>
      <trkpt lat="51.26454122364521" lon="5.922753699123859">
        <ele>18.699999999999999</ele>
        <time>2026-03-22T08:06:18Z</time>
      </trkpt>
      <trkpt lat="51.264740712940693" lon="5.922477599233389">
        <ele>18.699999999999999</ele>
        <time>2026-03-22T08:07:01Z</time>
      </trkpt>
      <trkpt lat="51.264881864190102" lon="5.922277858480811">
        <ele>18.68</ele>
        <time>2026-03-22T08:07:18Z</time>
      </trkpt>
      <trkpt lat="51.264978842809796" lon="5.922145675867796">
        <ele>18.670000000000002</ele>
        <time>2026-03-22T08:07:36Z</time>
      </trkpt>
      <trkpt lat="51.265086717903614" lon="5.921942917630076">
        <ele>18.609999999999999</ele>
        <time>2026-03-22T08:07:54Z</time>
      </trkpt>
      <trkpt lat="51.265124436467886" lon="5.921757761389017">
        <ele>18.800000000000001</ele>
        <time>2026-03-22T08:08:13Z</time>
      </trkpt>
      <trkpt lat="51.265135165303946" lon="5.921660782769322">
        <ele>18.82</ele>
        <time>2026-03-22T08:08:33Z</time>
      </trkpt>
      <trkpt lat="51.265148660168052" lon="5.92160789296031">
        <ele>17.760000000000002</ele>
        <time>2026-03-22T08:08:55Z</time>
      </trkpt>
      <trkpt lat="51.265108259394765" lon="5.921281753107905">
        <ele>17.329999999999998</ele>
        <time>2026-03-22T08:09:19Z</time>
      </trkpt>
      <trkpt lat="51.265035504475236" lon="5.921026105061173">
        <ele>19.149999999999999</ele>
        <time>2026-03-22T08:09:53Z</time>
      </trkpt>
      <trkpt lat="51.264989655464888" lon="5.920774899423122">
        <ele>20.059999999999999</ele>
        <time>2026-03-22T08:10:29Z</time>
      </trkpt>
      <trkpt lat="51.264919582754374" lon="5.920517826452851">
        <ele>18.989999999999998</ele>
        <time>2026-03-22T08:10:49Z</time>
      </trkpt>
      <trkpt lat="51.26487105153501" lon="5.920319510623813">
        <ele>18.989999999999998</ele>
        <time>2026-03-22T08:11:16Z</time>
      </trkpt>
      <trkpt lat="51.264852192252874" lon="5.920244576409459">
        <ele>18.969999999999999</ele>
        <time>2026-03-22T08:11:19Z</time>
      </trkpt>
      <trkpt lat="51.264765104278922" lon="5.919989682734013">
        <ele>19.41</ele>
        <time>2026-03-22T08:11:35Z</time>
      </trkpt>
      <trkpt lat="51.264790249988437" lon="5.919636301696301">
        <ele>19.949999999999999</ele>
        <time>2026-03-22T08:11:53Z</time>
      </trkpt>
      <trkpt lat="51.264776755124331" lon="5.919292476028204">
        <ele>20.289999999999999</ele>
        <time>2026-03-22T08:12:02Z</time>
      </trkpt>
      <trkpt lat="51.26500591635704" lon="5.91927956789732">
        <ele>20.609999999999999</ele>
        <time>2026-03-22T08:12:17Z</time>
      </trkpt>
      <trkpt lat="51.26509484834969" lon="5.919248722493649">
        <ele>20.75</ele>
        <time>2026-03-22T08:12:30Z</time>
      </trkpt>
      <trkpt lat="51.265103816986084" lon="5.919026350602508">
        <ele>21.050000000000001</ele>
        <time>2026-03-22T08:12:44Z</time>
      </trkpt>
      <trkpt lat="51.265113120898604" lon="5.918888300657272">
        <ele>20.120000000000001</ele>
        <time>2026-03-22T08:12:56Z</time>
      </trkpt>
      <trkpt lat="51.26510557718575" lon="5.918812360614538">
        <ele>19.280000000000001</ele>
        <time>2026-03-22T08:13:06Z</time>
      </trkpt>
      <trkpt lat="51.265127873048186" lon="5.918780509382486">
        <ele>19.23</ele>
        <time>2026-03-22T08:13:07Z</time>
      </trkpt>
      <trkpt lat="51.265135249122977" lon="5.918129151687026">
        <ele>18.789999999999999</ele>
        <time>2026-03-22T08:13:38Z</time>
      </trkpt>
      <trkpt lat="51.265165759250522" lon="5.917499586939812">
        <ele>18.829999999999998</ele>
        <time>2026-03-22T08:14:10Z</time>
      </trkpt>
      <trkpt lat="51.265210686251521" lon="5.916846720501781">
        <ele>27.12109375</ele>
      </trkpt>
      <trkpt lat="51.265121754258871" lon="5.916608758270741">
        <ele>18.789999999999999</ele>
        <time>2026-03-22T08:14:51Z</time>
      </trkpt>
      <trkpt lat="51.265146061778069" lon="5.916458889842033">
        <ele>27.31640625</ele>
      </trkpt>
      <trkpt lat="51.265393411740661" lon="5.916545139625669">
        <ele>18.530000000000001</ele>
        <time>2026-03-22T08:15:06Z</time>
      </trkpt>
      <trkpt lat="51.265469435602427" lon="5.916463248431683">
        <ele>27.046875</ele>
      </trkpt>
      <trkpt lat="51.265507154166698" lon="5.916361911222339">
        <ele>18.84</ele>
        <time>2026-03-22T08:15:24Z</time>
      </trkpt>
      <trkpt lat="51.265451079234481" lon="5.916199386119843">
        <ele>18.82</ele>
        <time>2026-03-22T08:15:34Z</time>
      </trkpt>
      <trkpt lat="51.265299618244171" lon="5.915934350341559">
        <ele>27.15625</ele>
      </trkpt>
      <trkpt lat="51.265307748690248" lon="5.915841814130545">
        <ele>18.699999999999999</ele>
        <time>2026-03-22T08:16:08Z</time>
      </trkpt>
      <trkpt lat="51.265350077301264" lon="5.915784733369947">
        <ele>18.649999999999999</ele>
        <time>2026-03-22T08:16:11Z</time>
      </trkpt>
      <trkpt lat="51.265650065615773" lon="5.915088197216392">
        <ele>18.489999999999998</ele>
        <time>2026-03-22T08:16:53Z</time>
      </trkpt>
      <trkpt lat="51.266081398352981" lon="5.914205498993397">
        <ele>18.399999999999999</ele>
        <time>2026-03-22T08:17:59Z</time>
      </trkpt>
      <trkpt lat="51.266261944547296" lon="5.913566378876567">
        <ele>18.609999999999999</ele>
        <time>2026-03-22T08:18:29Z</time>
      </trkpt>
      <trkpt lat="51.266313157975674" lon="5.913394466042519">
        <ele>18.59</ele>
        <time>2026-03-22T08:18:38Z</time>
      </trkpt>
      <trkpt lat="51.266394043341279" lon="5.91313311830163">
        <ele>18.559999999999999</ele>
        <time>2026-03-22T08:18:53Z</time>
      </trkpt>
      <trkpt lat="51.266590766608715" lon="5.912480838596821">
        <ele>18.350000000000001</ele>
        <time>2026-03-22T08:19:32Z</time>
      </trkpt>
      <trkpt lat="51.266819844022393" lon="5.911766784265637">
        <ele>18.399999999999999</ele>
        <time>2026-03-22T08:20:19Z</time>
      </trkpt>
      <trkpt lat="51.267108432948589" lon="5.910847373306751">
        <ele>18.789999999999999</ele>
        <time>2026-03-22T08:20:57Z</time>
      </trkpt>
      <trkpt lat="51.267167693004012" lon="5.910754837095738">
        <ele>18.809999999999999</ele>
        <time>2026-03-22T08:21:16Z</time>
      </trkpt>
      <trkpt lat="51.267294343560934" lon="5.910569680854678">
        <ele>18.399999999999999</ele>
        <time>2026-03-22T08:21:35Z</time>
      </trkpt>
      <trkpt lat="51.267685443162918" lon="5.91020280495286">
        <ele>18.359999999999999</ele>
        <time>2026-03-22T08:21:55Z</time>
      </trkpt>
      <trkpt lat="51.268267566338181" lon="5.909660663455725">
        <ele>18.129999999999999</ele>
        <time>2026-03-22T08:22:52Z</time>
      </trkpt>
      <trkpt lat="51.268860585987568" lon="5.90911852195859">
        <ele>18.140000000000001</ele>
        <time>2026-03-22T08:23:52Z</time>
      </trkpt>
      <trkpt lat="51.26943969167769" lon="5.908598760142922">
        <ele>18.469999999999999</ele>
        <time>2026-03-22T08:24:55Z</time>
      </trkpt>
      <trkpt lat="51.269995495676994" lon="5.907984534278512">
        <ele>18.210000000000001</ele>
        <time>2026-03-22T08:25:50Z</time>
      </trkpt>
      <trkpt lat="51.270462702959776" lon="5.907383468002081">
        <ele>18.550000000000001</ele>
        <time>2026-03-22T08:26:45Z</time>
      </trkpt>
      <trkpt lat="51.270759170874953" lon="5.907061770558357">
        <ele>18.949999999999999</ele>
        <time>2026-03-22T08:27:20Z</time>
      </trkpt>
      <trkpt lat="51.270864279940724" lon="5.906964791938663">
        <ele>20.050000000000001</ele>
        <time>2026-03-22T08:27:37Z</time>
      </trkpt>
      <trkpt lat="51.27095740288496" lon="5.906881811097264">
        <ele>20.050000000000001</ele>
        <time>2026-03-22T08:28:00Z</time>
      </trkpt>
      <trkpt lat="51.271107941865921" lon="5.906660780310631">
        <ele>19.27</ele>
        <time>2026-03-22T08:28:21Z</time>
      </trkpt>
      <trkpt lat="51.271364009007812" lon="5.906352074816823">
        <ele>19.41</ele>
        <time>2026-03-22T08:28:55Z</time>
      </trkpt>
      <trkpt lat="51.271515553817153" lon="5.906161889433861">
        <ele>19.32</ele>
        <time>2026-03-22T08:29:12Z</time>
      </trkpt>
      <trkpt lat="51.27196591347456" lon="5.905607342720032">
        <ele>19.449999999999999</ele>
        <time>2026-03-22T08:30:05Z</time>
      </trkpt>
      <trkpt lat="51.272224159911275" lon="5.905413553118706">
        <ele>19.510000000000002</ele>
        <time>2026-03-22T08:30:25Z</time>
      </trkpt>
      <trkpt lat="51.27245994284749" lon="5.905385725200176">
        <ele>19.390000000000001</ele>
        <time>2026-03-22T08:30:44Z</time>
      </trkpt>
      <trkpt lat="51.272913487628102" lon="5.905392933636904">
        <ele>19.260000000000002</ele>
        <time>2026-03-22T08:31:21Z</time>
      </trkpt>
      <trkpt lat="51.273321686312556" lon="5.905479434877634">
        <ele>19.550000000000001</ele>
        <time>2026-03-22T08:31:57Z</time>
      </trkpt>
      <trkpt lat="51.273728208616376" lon="5.905655957758427">
        <ele>19.41</ele>
        <time>2026-03-22T08:32:34Z</time>
      </trkpt>
      <trkpt lat="51.274321395903826" lon="5.905952760949731">
        <ele>19.57</ele>
        <time>2026-03-22T08:33:29Z</time>
      </trkpt>
      <trkpt lat="51.274465648457408" lon="5.906005818396807">
        <ele>19.690000000000001</ele>
        <time>2026-03-22T08:33:49Z</time>
      </trkpt>
      <trkpt lat="51.274810479953885" lon="5.906040687114">
        <ele>19.59</ele>
        <time>2026-03-22T08:34:27Z</time>
      </trkpt>
      <trkpt lat="51.274988679215312" lon="5.906084105372429">
        <ele>20.620000000000001</ele>
        <time>2026-03-22T08:34:43Z</time>
      </trkpt>
      <trkpt lat="51.275002844631672" lon="5.906068431213498">
        <ele>21.149999999999999</ele>
        <time>2026-03-22T08:35:04Z</time>
      </trkpt>
      <trkpt lat="51.274992953985929" lon="5.906027862802148">
        <ele>21.350000000000001</ele>
        <time>2026-03-22T08:35:36Z</time>
      </trkpt>
      <trkpt lat="51.274982141330838" lon="5.905950330197811">
        <ele>21.289999999999999</ele>
        <time>2026-03-22T08:35:40Z</time>
      </trkpt>
      <trkpt lat="51.27491382881999" lon="5.905545651912689">
        <ele>21.16</ele>
        <time>2026-03-22T08:36:00Z</time>
      </trkpt>
      <trkpt lat="51.274806037545204" lon="5.904813995584846">
        <ele>21.379999999999999</ele>
        <time>2026-03-22T08:36:33Z</time>
      </trkpt>
      <trkpt lat="51.274851886555552" lon="5.90447461232543">
        <ele>21.879999999999999</ele>
        <time>2026-03-22T08:37:07Z</time>
      </trkpt>
      <trkpt lat="51.275011394172907" lon="5.903832390904427">
        <ele>21.829999999999998</ele>
        <time>2026-03-22T08:37:33Z</time>
      </trkpt>
      <trkpt lat="51.274976273998618" lon="5.903517147526145">
        <ele>22.300000000000001</ele>
        <time>2026-03-22T08:37:50Z</time>
      </trkpt>
      <trkpt lat="51.27486982382834" lon="5.90276051312685">
        <ele>22.789999999999999</ele>
        <time>2026-03-22T08:38:29Z</time>
      </trkpt>
      <trkpt lat="51.274767396971583" lon="5.902031622827053">
        <ele>22.739999999999998</ele>
        <time>2026-03-22T08:39:04Z</time>
      </trkpt>
      <trkpt lat="51.274714507162571" lon="5.901659801602364">
        <ele>22.460000000000001</ele>
        <time>2026-03-22T08:39:26Z</time>
      </trkpt>
      <trkpt lat="51.274547455832362" lon="5.900513827800751">
        <ele>22.489999999999998</ele>
        <time>2026-03-22T08:40:26Z</time>
      </trkpt>
      <trkpt lat="51.27507652156055" lon="5.900302352383733">
        <ele>22.07</ele>
        <time>2026-03-22T08:41:18Z</time>
      </trkpt>
      <trkpt lat="51.276058880612254" lon="5.901245651766658">
        <ele>22.550000000000001</ele>
        <time>2026-03-22T08:42:53Z</time>
      </trkpt>
      <trkpt lat="51.276239426806569" lon="5.901148673146963">
        <ele>22.68</ele>
        <time>2026-03-22T08:43:13Z</time>
      </trkpt>
      <trkpt lat="51.276483172550797" lon="5.901025710627437">
        <ele>22.84</ele>
        <time>2026-03-22T08:43:35Z</time>
      </trkpt>
      <trkpt lat="51.276980973780155" lon="5.900768553838134">
        <ele>23.300000000000001</ele>
        <time>2026-03-22T08:44:17Z</time>
      </trkpt>
      <trkpt lat="51.277772141620517" lon="5.900405365973711">
        <ele>23.120000000000001</ele>
        <time>2026-03-22T08:45:18Z</time>
      </trkpt>
      <trkpt lat="51.278011193498969" lon="5.900352476164699">
        <ele>23.27</ele>
        <time>2026-03-22T08:45:59Z</time>
      </trkpt>
      <trkpt lat="51.278162067756057" lon="5.900334790349007">
        <ele>23.27</ele>
        <time>2026-03-22T08:46:27Z</time>
      </trkpt>
      <trkpt lat="51.278351750224829" lon="5.900229094550014">
        <ele>23.120000000000001</ele>
        <time>2026-03-22T08:46:47Z</time>
      </trkpt>
      <trkpt lat="51.278650816529989" lon="5.900136474519968">
        <ele>23.149999999999999</ele>
        <time>2026-03-22T08:47:15Z</time>
      </trkpt>
      <trkpt lat="51.279048956930637" lon="5.899983756244183">
        <ele>23.280000000000001</ele>
        <time>2026-03-22T08:47:38Z</time>
      </trkpt>
      <trkpt lat="51.279194466769695" lon="5.899917623028159">
        <ele>23.260000000000002</ele>
        <time>2026-03-22T08:47:56Z</time>
      </trkpt>
      <trkpt lat="51.279396722093225" lon="5.899833887815476">
        <ele>23.18</ele>
        <time>2026-03-22T08:48:19Z</time>
      </trkpt>
      <trkpt lat="51.279799388721585" lon="5.899659041315317">
        <ele>23.550000000000001</ele>
        <time>2026-03-22T08:48:54Z</time>
      </trkpt>
      <trkpt lat="51.280217980965972" lon="5.899456450715661">
        <ele>24.039999999999999</ele>
        <time>2026-03-22T08:49:32Z</time>
      </trkpt>
      <trkpt lat="51.280731121078134" lon="5.899284621700645">
        <ele>23.859999999999999</ele>
        <time>2026-03-22T08:50:14Z</time>
      </trkpt>
      <trkpt lat="51.281184162944555" lon="5.899092592298985">
        <ele>23.969999999999999</ele>
        <time>2026-03-22T08:50:50Z</time>
      </trkpt>
      <trkpt lat="51.281491108238697" lon="5.898945322260261">
        <ele>23.809999999999999</ele>
        <time>2026-03-22T08:51:08Z</time>
      </trkpt>
      <trkpt lat="51.281033791601658" lon="5.896247774362564">
        <ele>23.16</ele>
        <time>2026-03-22T08:53:41Z</time>
      </trkpt>
      <trkpt lat="51.282472545281053" lon="5.89557521045208">
        <ele>22.960000000000001</ele>
        <time>2026-03-22T08:55:56Z</time>
      </trkpt>
      <trkpt lat="51.283000688999891" lon="5.894984621554613">
        <ele>23</ele>
        <time>2026-03-22T08:56:30Z</time>
      </trkpt>
      <trkpt lat="51.284280102699995" lon="5.893615521490574">
        <ele>22.260000000000002</ele>
        <time>2026-03-22T08:58:39Z</time>
      </trkpt>
      <trkpt lat="51.284413710236549" lon="5.893496498465538">
        <ele>22.300000000000001</ele>
        <time>2026-03-22T08:58:51Z</time>
      </trkpt>
      <trkpt lat="51.284614456817508" lon="5.893251411616802">
        <ele>22.350000000000001</ele>
        <time>2026-03-22T08:59:15Z</time>
      </trkpt>
      <trkpt lat="51.284878570586443" lon="5.892982603982091">
        <ele>22.379999999999999</ele>
        <time>2026-03-22T08:59:31Z</time>
      </trkpt>
      <trkpt lat="51.285019302740693" lon="5.892951842397451">
        <ele>22.559999999999999</ele>
        <time>2026-03-22T08:59:47Z</time>
      </trkpt>
      <trkpt lat="51.285086274147034" lon="5.892747491598129">
        <ele>22.510000000000002</ele>
        <time>2026-03-22T09:00:02Z</time>
      </trkpt>
      <trkpt lat="51.285299174487591" lon="5.892465356737375">
        <ele>22.469999999999999</ele>
        <time>2026-03-22T09:00:20Z</time>
      </trkpt>
      <trkpt lat="51.285649538040161" lon="5.892081884667277">
        <ele>22.469999999999999</ele>
        <time>2026-03-22T09:01:00Z</time>
      </trkpt>
      <trkpt lat="51.286139292642474" lon="5.891551729291678">
        <ele>22.370000000000001</ele>
        <time>2026-03-22T09:01:33Z</time>
      </trkpt>
      <trkpt lat="51.286551766097546" lon="5.891106734052301">
        <ele>22.25</ele>
        <time>2026-03-22T09:02:15Z</time>
      </trkpt>
      <trkpt lat="51.287020649760962" lon="5.890590995550156">
        <ele>22.329999999999998</ele>
        <time>2026-03-22T09:02:52Z</time>
      </trkpt>
      <trkpt lat="51.287115029990673" lon="5.890317745506764">
        <ele>22.300000000000001</ele>
        <time>2026-03-22T09:03:10Z</time>
      </trkpt>
      <trkpt lat="51.287115029990673" lon="5.890172319486737">
        <ele>22.350000000000001</ele>
        <time>2026-03-22T09:03:17Z</time>
      </trkpt>
      <trkpt lat="51.286993743851781" lon="5.890110544860363">
        <ele>22.32</ele>
        <time>2026-03-22T09:03:32Z</time>
      </trkpt>
      <trkpt lat="51.286801462993026" lon="5.890038628131151">
        <ele>22.359999999999999</ele>
        <time>2026-03-22T09:03:48Z</time>
      </trkpt>
      <trkpt lat="51.286397203803062" lon="5.889862356707454">
        <ele>22.440000000000001</ele>
        <time>2026-03-22T09:04:22Z</time>
      </trkpt>
      <trkpt lat="51.286155469715595" lon="5.8897097222507">
        <ele>22.199999999999999</ele>
        <time>2026-03-22T09:04:54Z</time>
      </trkpt>
      <trkpt lat="51.285958746448159" lon="5.889392383396626">
        <ele>22.280000000000001</ele>
        <time>2026-03-22T09:05:06Z</time>
      </trkpt>
      <trkpt lat="51.285808626562357" lon="5.889076385647059">
        <ele>22.57</ele>
        <time>2026-03-22T09:05:26Z</time>
      </trkpt>
      <trkpt lat="51.285190545022488" lon="5.887135975062847">
        <ele>22.510000000000002</ele>
        <time>2026-03-22T09:07:14Z</time>
      </trkpt>
      <trkpt lat="51.285004550591111" lon="5.886484533548355">
        <ele>22.690000000000001</ele>
        <time>2026-03-22T09:07:46Z</time>
      </trkpt>
      <trkpt lat="51.284777987748384" lon="5.885739047080278">
        <ele>22.850000000000001</ele>
        <time>2026-03-22T09:08:22Z</time>
      </trkpt>
      <trkpt lat="51.284648654982448" lon="5.885144015774131">
        <ele>23</ele>
        <time>2026-03-22T09:08:57Z</time>
      </trkpt>
      <trkpt lat="51.284575900062919" lon="5.884504895657301">
        <ele>23.149999999999999</ele>
        <time>2026-03-22T09:09:18Z</time>
      </trkpt>
      <trkpt lat="51.283794371411204" lon="5.884395763278008">
        <ele>23.059999999999999</ele>
        <time>2026-03-22T09:10:27Z</time>
      </trkpt>
      <trkpt lat="51.28307637758553" lon="5.884202141314745">
        <ele>22.989999999999998</ele>
        <time>2026-03-22T09:11:26Z</time>
      </trkpt>
      <trkpt lat="51.282683433964849" lon="5.884140366688371">
        <ele>23.710000000000001</ele>
        <time>2026-03-22T09:11:59Z</time>
      </trkpt>
      <trkpt lat="51.282511940225959" lon="5.884083453565836">
        <ele>23.760000000000002</ele>
        <time>2026-03-22T09:12:11Z</time>
      </trkpt>
      <trkpt lat="51.282361233606935" lon="5.883991839364171">
        <ele>23.59</ele>
        <time>2026-03-22T09:12:27Z</time>
      </trkpt>
      <trkpt lat="51.282256208360195" lon="5.883850017562509">
        <ele>23.699999999999999</ele>
        <time>2026-03-22T09:12:37Z</time>
      </trkpt>
      <trkpt lat="51.28199159167707" lon="5.883531253784895">
        <ele>23.809999999999999</ele>
        <time>2026-03-22T09:12:54Z</time>
      </trkpt>
      <trkpt lat="51.281913388520479" lon="5.883566457778215">
        <ele>23.739999999999998</ele>
        <time>2026-03-22T09:13:09Z</time>
      </trkpt>
      <trkpt lat="51.281862258911133" lon="5.883606187999249">
        <ele>23.739999999999998</ele>
        <time>2026-03-22T09:13:12Z</time>
      </trkpt>
      <trkpt lat="51.281652040779591" lon="5.883786901831627">
        <ele>24.100000000000001</ele>
        <time>2026-03-22T09:13:31Z</time>
      </trkpt>
      <trkpt lat="51.281265635043383" lon="5.884098457172513">
        <ele>23.68</ele>
        <time>2026-03-22T09:14:08Z</time>
      </trkpt>
      <trkpt lat="51.280952990055084" lon="5.884358463808894">
        <ele>23.559999999999999</ele>
        <time>2026-03-22T09:14:22Z</time>
      </trkpt>
      <trkpt lat="51.280853329226375" lon="5.884076412767172">
        <ele>23.629999999999999</ele>
        <time>2026-03-22T09:14:40Z</time>
      </trkpt>
      <trkpt lat="51.280552335083485" lon="5.884290738031268">
        <ele>23.949999999999999</ele>
        <time>2026-03-22T09:15:13Z</time>
      </trkpt>
      <trkpt lat="51.280369609594345" lon="5.884451167657971">
        <ele>24.210000000000001</ele>
        <time>2026-03-22T09:15:30Z</time>
      </trkpt>
      <trkpt lat="51.279942551627755" lon="5.884760040789843">
        <ele>24.719999999999999</ele>
        <time>2026-03-22T09:16:11Z</time>
      </trkpt>
      <trkpt lat="51.279488252475858" lon="5.885146362707019">
        <ele>24.23</ele>
        <time>2026-03-22T09:16:54Z</time>
      </trkpt>
      <trkpt lat="51.278395000845194" lon="5.885974494740367">
        <ele>23.940000000000001</ele>
        <time>2026-03-22T09:18:35Z</time>
      </trkpt>
      <trkpt lat="51.278572864830494" lon="5.886675305664539">
        <ele>24.609999999999999</ele>
        <time>2026-03-22T09:19:46Z</time>
      </trkpt>
      <trkpt lat="51.278327526524663" lon="5.886851409450173">
        <ele>24.329999999999998</ele>
        <time>2026-03-22T09:20:07Z</time>
      </trkpt>
      <trkpt lat="51.276566488668323" lon="5.888232830911875">
        <ele>23.940000000000001</ele>
        <time>2026-03-22T09:22:53Z</time>
      </trkpt>
      <trkpt lat="51.274884324520826" lon="5.889574941247702">
        <ele>23.949999999999999</ele>
        <time>2026-03-22T09:25:23Z</time>
      </trkpt>
      <trkpt lat="51.274466570466757" lon="5.889923125505447">
        <ele>23.670000000000002</ele>
        <time>2026-03-22T09:25:55Z</time>
      </trkpt>
      <trkpt lat="51.274750549346209" lon="5.89086483232677">
        <ele>23.699999999999999</ele>
        <time>2026-03-22T09:27:30Z</time>
      </trkpt>
      <trkpt lat="51.274647619575262" lon="5.890865083783865">
        <ele>23.739999999999998</ele>
        <time>2026-03-22T09:27:34Z</time>
      </trkpt>
      <trkpt lat="51.272307308390737" lon="5.891006821766496">
        <ele>23.359999999999999</ele>
        <time>2026-03-22T09:30:33Z</time>
      </trkpt>
      <trkpt lat="51.272008325904608" lon="5.891014700755477">
        <ele>23.309999999999999</ele>
        <time>2026-03-22T09:30:55Z</time>
      </trkpt>
      <trkpt lat="51.271556373685598" lon="5.891032218933106">
        <ele>23.079999999999998</ele>
        <time>2026-03-22T09:31:19Z</time>
      </trkpt>
      <trkpt lat="51.272204043343663" lon="5.893466575071216">
        <ele>22.440000000000001</ele>
        <time>2026-03-22T09:33:35Z</time>
      </trkpt>
      <trkpt lat="51.272266991436481" lon="5.893682073801756">
        <ele>21.82</ele>
        <time>2026-03-22T09:33:52Z</time>
      </trkpt>
      <trkpt lat="51.272447621449828" lon="5.894788401201367">
        <ele>22.219999999999999</ele>
        <time>2026-03-22T09:34:53Z</time>
      </trkpt>
      <trkpt lat="51.272501517087221" lon="5.895030805841088">
        <ele>22.059999999999999</ele>
        <time>2026-03-22T09:35:13Z</time>
      </trkpt>
      <trkpt lat="51.272784406319261" lon="5.895828595384955">
        <ele>21.870000000000001</ele>
        <time>2026-03-22T09:35:38Z</time>
      </trkpt>
      <trkpt lat="51.272865291684866" lon="5.896110730245709">
        <ele>22.420000000000002</ele>
        <time>2026-03-22T09:35:57Z</time>
      </trkpt>
      <trkpt lat="51.272775940597057" lon="5.896144760772586">
        <ele>22.41</ele>
        <time>2026-03-22T09:36:03Z</time>
      </trkpt>
      <trkpt lat="51.272567817941308" lon="5.896270824596286">
        <ele>22.149999999999999</ele>
        <time>2026-03-22T09:36:22Z</time>
      </trkpt>
      <trkpt lat="51.268836362287402" lon="5.898019457235932">
        <ele>22.02</ele>
        <time>2026-03-22T09:41:29Z</time>
      </trkpt>
      <trkpt lat="51.268458086997271" lon="5.898246355354786">
        <ele>22.359999999999999</ele>
        <time>2026-03-22T09:42:02Z</time>
      </trkpt>
      <trkpt lat="51.268129097297788" lon="5.898350710049272">
        <ele>22.379999999999999</ele>
        <time>2026-03-22T09:42:53Z</time>
      </trkpt>
      <trkpt lat="51.268124738708138" lon="5.8983647916466">
        <ele>22.379999999999999</ele>
        <time>2026-03-22T09:43:20Z</time>
      </trkpt>
      <trkpt lat="51.268009571358562" lon="5.898409551009536">
        <ele>22.239999999999998</ele>
        <time>2026-03-22T09:43:39Z</time>
      </trkpt>
      <trkpt lat="51.267474386841059" lon="5.898688416928053">
        <ele>22.010000000000002</ele>
        <time>2026-03-22T09:44:20Z</time>
      </trkpt>
      <trkpt lat="51.267504058778286" lon="5.89881188236177">
        <ele>21.899999999999999</ele>
        <time>2026-03-22T09:44:25Z</time>
      </trkpt>
      <trkpt lat="51.267544459551573" lon="5.898922020569444">
        <ele>21.699999999999999</ele>
        <time>2026-03-22T09:44:30Z</time>
      </trkpt>
      <trkpt lat="51.267598355188966" lon="5.899098375812173">
        <ele>21.48</ele>
        <time>2026-03-22T09:44:43Z</time>
      </trkpt>
      <trkpt lat="51.267684437334538" lon="5.899309432134032">
        <ele>21.579999999999998</ele>
        <time>2026-03-22T09:44:59Z</time>
      </trkpt>
      <trkpt lat="51.267594583332539" lon="5.899480255320668">
        <ele>21.77</ele>
        <time>2026-03-22T09:45:17Z</time>
      </trkpt>
      <trkpt lat="51.267384700477123" lon="5.899791391566396">
        <ele>21.649999999999999</ele>
        <time>2026-03-22T09:45:40Z</time>
      </trkpt>
      <trkpt lat="51.267022266983986" lon="5.900405617430806">
        <ele>21.48</ele>
        <time>2026-03-22T09:46:22Z</time>
      </trkpt>
      <trkpt lat="51.266714986413717" lon="5.900996290147305">
        <ele>21.440000000000001</ele>
        <time>2026-03-22T09:46:57Z</time>
      </trkpt>
      <trkpt lat="51.266391696408391" lon="5.901605235412717">
        <ele>21.739999999999998</ele>
        <time>2026-03-22T09:47:35Z</time>
      </trkpt>
      <trkpt lat="51.266174856573343" lon="5.902001028880477">
        <ele>21.199999999999999</ele>
        <time>2026-03-22T09:48:13Z</time>
      </trkpt>
      <trkpt lat="51.265714019536972" lon="5.903162928298116">
        <ele>21.350000000000001</ele>
        <time>2026-03-22T09:49:09Z</time>
      </trkpt>
      <trkpt lat="51.265466082841158" lon="5.903872540220618">
        <ele>21.899999999999999</ele>
        <time>2026-03-22T09:49:55Z</time>
      </trkpt>
      <trkpt lat="51.265436410903931" lon="5.903978319838643">
        <ele>21.899999999999999</ele>
        <time>2026-03-22T09:49:58Z</time>
      </trkpt>
      <trkpt lat="51.265251087024808" lon="5.904405461624265">
        <ele>21.649999999999999</ele>
        <time>2026-03-22T09:50:24Z</time>
      </trkpt>
      <trkpt lat="51.264857640489936" lon="5.905137117952108">
        <ele>21.66</ele>
        <time>2026-03-22T09:51:06Z</time>
      </trkpt>
      <trkpt lat="51.264617750421166" lon="5.905731981620193">
        <ele>21.920000000000002</ele>
        <time>2026-03-22T09:51:40Z</time>
      </trkpt>
      <trkpt lat="51.264445334672928" lon="5.906304968520999">
        <ele>21.77</ele>
        <time>2026-03-22T09:52:15Z</time>
      </trkpt>
      <trkpt lat="51.264404850080609" lon="5.906485682353377">
        <ele>21.879999999999999</ele>
        <time>2026-03-22T09:52:33Z</time>
      </trkpt>
      <trkpt lat="51.264348104596138" lon="5.907001085579395">
        <ele>22.129999999999999</ele>
        <time>2026-03-22T09:52:59Z</time>
      </trkpt>
      <trkpt lat="51.264323880895972" lon="5.907297972589731">
        <ele>22.16</ele>
        <time>2026-03-22T09:53:22Z</time>
      </trkpt>
      <trkpt lat="51.264275349676609" lon="5.907450439408422">
        <ele>22.050000000000001</ele>
        <time>2026-03-22T09:53:44Z</time>
      </trkpt>
      <trkpt lat="51.26429152674973" lon="5.90760475024581">
        <ele>22.059999999999999</ele>
        <time>2026-03-22T09:54:19Z</time>
      </trkpt>
      <trkpt lat="51.264129839837551" lon="5.908499518409371">
        <ele>22.16</ele>
        <time>2026-03-22T09:54:59Z</time>
      </trkpt>
      <trkpt lat="51.264045434072614" lon="5.909685054793954">
        <ele>21.66</ele>
        <time>2026-03-22T09:55:42Z</time>
      </trkpt>
      <trkpt lat="51.264010397717357" lon="5.910773696377873">
        <ele>21.809999999999999</ele>
        <time>2026-03-22T09:56:19Z</time>
      </trkpt>
      <trkpt lat="51.263945270329714" lon="5.911472663283348">
        <ele>21.920000000000002</ele>
        <time>2026-03-22T09:56:55Z</time>
      </trkpt>
      <trkpt lat="51.263816524296999" lon="5.912023857235909">
        <ele>22.02</ele>
        <time>2026-03-22T09:57:23Z</time>
      </trkpt>
      <trkpt lat="51.263694064691663" lon="5.912405820563436">
        <ele>21.879999999999999</ele>
        <time>2026-03-22T09:57:44Z</time>
      </trkpt>
      <trkpt lat="51.263516200706363" lon="5.913027254864574">
        <ele>21.77</ele>
        <time>2026-03-22T09:58:21Z</time>
      </trkpt>
      <trkpt lat="51.263313107192516" lon="5.91367500834167">
        <ele>22.100000000000001</ele>
        <time>2026-03-22T09:58:53Z</time>
      </trkpt>
      <trkpt lat="51.263164831325412" lon="5.914274314418435">
        <ele>21.75</ele>
        <time>2026-03-22T09:59:23Z</time>
      </trkpt>
      <trkpt lat="51.263035414740443" lon="5.914886947721243">
        <ele>21.690000000000001</ele>
        <time>2026-03-22T09:59:53Z</time>
      </trkpt>
      <trkpt lat="51.262984201312065" lon="5.91525717638433">
        <ele>21.219999999999999</ele>
        <time>2026-03-22T10:00:17Z</time>
      </trkpt>
      <trkpt lat="51.262894347310066" lon="5.915769729763269">
        <ele>21.52</ele>
        <time>2026-03-22T10:00:49Z</time>
      </trkpt>
      <trkpt lat="51.262902393937111" lon="5.91619729064405">
        <ele>21.359999999999999</ele>
        <time>2026-03-22T10:01:06Z</time>
      </trkpt>
      <trkpt lat="51.263029128313065" lon="5.917003881186247">
        <ele>22.010000000000002</ele>
        <time>2026-03-22T10:01:41Z</time>
      </trkpt>
      <trkpt lat="51.26314957626164" lon="5.917910300195217">
        <ele>22.73</ele>
        <time>2026-03-22T10:02:32Z</time>
      </trkpt>
      <trkpt lat="51.263165753334761" lon="5.918073328211904">
        <ele>22.850000000000001</ele>
        <time>2026-03-22T10:02:35Z</time>
      </trkpt>
      <trkpt lat="51.263270862400532" lon="5.919179655611515">
        <ele>22.510000000000002</ele>
        <time>2026-03-22T10:03:34Z</time>
      </trkpt>
      <trkpt lat="51.263270862400532" lon="5.919298678636551">
        <ele>22.670000000000002</ele>
        <time>2026-03-22T10:03:37Z</time>
      </trkpt>
    </trkseg>
  </trk>

</gpx>